sensor_id;sensor_type;location;lat;lon;timestamp;P1;durP1;ratioP1;P2;durP2;ratioP2
67595;SDS011;54410;48.694;8.934;2022-10-16T00:02:15;1.08;;;1.05;;
67595;SDS011;54410;48.694;8.934;2022-10-16T00:04:42;3.50;;;1.67;;
67595;SDS011;54410;48.694;8.934;2022-10-16T00:07:08;2.05;;;1.30;;
67595;SDS011;54410;48.694;8.934;2022-10-16T00:09:34;1.50;;;1.40;;
67595;SDS011;54410;48.694;8.934;2022-10-16T00:11:59;2.15;;;1.50;;
67595;SDS011;54410;48.694;8.934;2022-10-16T00:14:26;2.20;;;1.45;;
67595;SDS011;54410;48.694;8.934;2022-10-16T00:16:51;2.95;;;1.20;;
67595;SDS011;54410;48.694;8.934;2022-10-16T00:19:17;3.85;;;1.30;;
67595;SDS011;54410;48.694;8.934;2022-10-16T00:21:43;2.67;;;1.52;;
67595;SDS011;54410;48.694;8.934;2022-10-16T00:24:09;1.55;;;1.40;;
67595;SDS011;54410;48.694;8.934;2022-10-16T00:26:35;3.20;;;1.13;;
67595;SDS011;54410;48.694;8.934;2022-10-16T00:29:02;1.33;;;1.20;;
67595;SDS011;54410;48.694;8.934;2022-10-16T00:31:28;1.60;;;1.50;;
67595;SDS011;54410;48.694;8.934;2022-10-16T00:33:54;1.20;;;1.10;;
67595;SDS011;54410;48.694;8.934;2022-10-16T00:36:22;1.75;;;1.35;;
67595;SDS011;54410;48.694;8.934;2022-10-16T00:38:52;1.35;;;1.25;;
67595;SDS011;54410;48.694;8.934;2022-10-16T00:41:19;1.45;;;1.35;;
67595;SDS011;54410;48.694;8.934;2022-10-16T00:43:55;4.60;;;1.60;;
67595;SDS011;54410;48.694;8.934;2022-10-16T00:48:50;2.75;;;1.58;;
67595;SDS011;54410;48.694;8.934;2022-10-16T00:51:20;3.25;;;1.48;;
67595;SDS011;54410;48.694;8.934;2022-10-16T00:53:47;1.50;;;1.40;;
67595;SDS011;54410;48.694;8.934;2022-10-16T00:56:13;1.42;;;1.25;;
67595;SDS011;54410;48.694;8.934;2022-10-16T00:58:39;1.98;;;1.45;;
67595;SDS011;54410;48.694;8.934;2022-10-16T01:01:05;1.52;;;1.40;;
67595;SDS011;54410;48.694;8.934;2022-10-16T01:03:33;2.55;;;1.30;;
67595;SDS011;54410;48.694;8.934;2022-10-16T01:08:34;1.45;;;1.20;;
67595;SDS011;54410;48.694;8.934;2022-10-16T01:11:18;1.33;;;1.23;;
67595;SDS011;54410;48.694;8.934;2022-10-16T01:13:48;1.42;;;1.20;;
67595;SDS011;54410;48.694;8.934;2022-10-16T01:16:31;1.73;;;1.40;;
67595;SDS011;54410;48.694;8.934;2022-10-16T01:21:31;1.52;;;1.42;;
67595;SDS011;54410;48.694;8.934;2022-10-16T01:24:06;2.13;;;1.38;;
67595;SDS011;54410;48.694;8.934;2022-10-16T01:29:13;1.70;;;1.30;;
67595;SDS011;54410;48.694;8.934;2022-10-16T01:31:41;2.33;;;1.60;;
67595;SDS011;54410;48.694;8.934;2022-10-16T01:36:35;3.47;;;1.83;;
67595;SDS011;54410;48.694;8.934;2022-10-16T01:39:02;2.47;;;1.50;;
67595;SDS011;54410;48.694;8.934;2022-10-16T01:41:33;2.72;;;1.60;;
67595;SDS011;54410;48.694;8.934;2022-10-16T01:44:18;1.35;;;1.25;;
67595;SDS011;54410;48.694;8.934;2022-10-16T01:46:45;2.25;;;1.40;;
67595;SDS011;54410;48.694;8.934;2022-10-16T01:49:12;0.93;;;0.93;;
67595;SDS011;54410;48.694;8.934;2022-10-16T01:51:38;1.30;;;1.20;;
67595;SDS011;54410;48.694;8.934;2022-10-16T01:54:05;1.60;;;1.50;;
67595;SDS011;54410;48.694;8.934;2022-10-16T01:56:33;1.45;;;1.35;;
67595;SDS011;54410;48.694;8.934;2022-10-16T01:59:00;1.30;;;1.20;;
67595;SDS011;54410;48.694;8.934;2022-10-16T02:01:31;1.70;;;1.27;;
67595;SDS011;54410;48.694;8.934;2022-10-16T02:03:59;3.78;;;1.20;;
67595;SDS011;54410;48.694;8.934;2022-10-16T02:06:27;4.28;;;1.60;;
67595;SDS011;54410;48.694;8.934;2022-10-16T02:08:54;1.30;;;1.20;;
67595;SDS011;54410;48.694;8.934;2022-10-16T02:11:20;1.45;;;1.35;;
67595;SDS011;54410;48.694;8.934;2022-10-16T02:13:51;1.73;;;1.45;;
67595;SDS011;54410;48.694;8.934;2022-10-16T02:16:18;3.28;;;1.27;;
67595;SDS011;54410;48.694;8.934;2022-10-16T02:18:44;1.40;;;1.10;;
67595;SDS011;54410;48.694;8.934;2022-10-16T02:21:16;1.55;;;1.33;;
67595;SDS011;54410;48.694;8.934;2022-10-16T02:23:50;1.63;;;1.20;;
67595;SDS011;54410;48.694;8.934;2022-10-16T02:26:19;2.78;;;1.45;;
67595;SDS011;54410;48.694;8.934;2022-10-16T02:28:50;3.63;;;1.38;;
67595;SDS011;54410;48.694;8.934;2022-10-16T02:31:20;1.55;;;1.20;;
67595;SDS011;54410;48.694;8.934;2022-10-16T02:33:48;1.60;;;1.40;;
67595;SDS011;54410;48.694;8.934;2022-10-16T02:36:15;1.83;;;1.40;;
67595;SDS011;54410;48.694;8.934;2022-10-16T02:38:42;1.30;;;1.20;;
67595;SDS011;54410;48.694;8.934;2022-10-16T02:41:08;2.20;;;1.38;;
67595;SDS011;54410;48.694;8.934;2022-10-16T02:43:34;1.80;;;1.50;;
67595;SDS011;54410;48.694;8.934;2022-10-16T02:46:00;3.42;;;1.40;;
67595;SDS011;54410;48.694;8.934;2022-10-16T02:48:26;1.23;;;1.13;;
67595;SDS011;54410;48.694;8.934;2022-10-16T02:50:52;1.30;;;1.15;;
67595;SDS011;54410;48.694;8.934;2022-10-16T02:53:18;2.63;;;1.23;;
67595;SDS011;54410;48.694;8.934;2022-10-16T02:55:44;1.60;;;1.50;;
67595;SDS011;54410;48.694;8.934;2022-10-16T02:58:09;2.05;;;1.25;;
67595;SDS011;54410;48.694;8.934;2022-10-16T03:00:35;2.25;;;1.20;;
67595;SDS011;54410;48.694;8.934;2022-10-16T03:03:01;2.28;;;1.27;;
67595;SDS011;54410;48.694;8.934;2022-10-16T03:05:27;1.08;;;1.00;;
67595;SDS011;54410;48.694;8.934;2022-10-16T03:07:53;1.08;;;0.80;;
67595;SDS011;54410;48.694;8.934;2022-10-16T03:10:19;2.58;;;1.30;;
67595;SDS011;54410;48.694;8.934;2022-10-16T03:12:44;1.45;;;1.30;;
67595;SDS011;54410;48.694;8.934;2022-10-16T03:15:10;2.55;;;1.35;;
67595;SDS011;54410;48.694;8.934;2022-10-16T03:17:36;1.83;;;1.35;;
67595;SDS011;54410;48.694;8.934;2022-10-16T03:20:02;3.80;;;1.60;;
67595;SDS011;54410;48.694;8.934;2022-10-16T03:22:29;1.70;;;1.25;;
67595;SDS011;54410;48.694;8.934;2022-10-16T03:24:55;3.95;;;1.20;;
67595;SDS011;54410;48.694;8.934;2022-10-16T03:27:20;1.75;;;1.17;;
67595;SDS011;54410;48.694;8.934;2022-10-16T03:29:46;2.33;;;1.40;;
67595;SDS011;54410;48.694;8.934;2022-10-16T03:32:12;1.80;;;1.13;;
67595;SDS011;54410;48.694;8.934;2022-10-16T03:34:39;1.55;;;1.30;;
67595;SDS011;54410;48.694;8.934;2022-10-16T03:37:05;1.90;;;1.30;;
67595;SDS011;54410;48.694;8.934;2022-10-16T03:39:31;1.52;;;1.00;;
67595;SDS011;54410;48.694;8.934;2022-10-16T03:41:57;1.83;;;1.20;;
67595;SDS011;54410;48.694;8.934;2022-10-16T03:44:23;2.55;;;1.42;;
67595;SDS011;54410;48.694;8.934;2022-10-16T03:46:48;1.20;;;1.10;;
67595;SDS011;54410;48.694;8.934;2022-10-16T03:49:14;2.53;;;1.13;;
67595;SDS011;54410;48.694;8.934;2022-10-16T03:51:41;1.35;;;1.25;;
67595;SDS011;54410;48.694;8.934;2022-10-16T03:54:07;1.67;;;1.33;;
67595;SDS011;54410;48.694;8.934;2022-10-16T03:56:32;3.83;;;1.10;;
67595;SDS011;54410;48.694;8.934;2022-10-16T03:58:58;1.98;;;1.48;;
67595;SDS011;54410;48.694;8.934;2022-10-16T04:01:24;2.13;;;1.65;;
67595;SDS011;54410;48.694;8.934;2022-10-16T04:03:50;4.85;;;2.10;;
67595;SDS011;54410;48.694;8.934;2022-10-16T04:06:16;2.35;;;1.90;;
67595;SDS011;54410;48.694;8.934;2022-10-16T04:08:42;2.15;;;1.60;;
67595;SDS011;54410;48.694;8.934;2022-10-16T04:11:08;2.03;;;1.45;;
67595;SDS011;54410;48.694;8.934;2022-10-16T04:13:34;1.77;;;1.42;;
67595;SDS011;54410;48.694;8.934;2022-10-16T04:16:00;1.40;;;1.30;;
67595;SDS011;54410;48.694;8.934;2022-10-16T04:18:26;1.40;;;1.30;;
67595;SDS011;54410;48.694;8.934;2022-10-16T04:20:53;1.95;;;1.70;;
67595;SDS011;54410;48.694;8.934;2022-10-16T04:23:19;4.63;;;1.42;;
67595;SDS011;54410;48.694;8.934;2022-10-16T04:25:44;4.25;;;1.45;;
67595;SDS011;54410;48.694;8.934;2022-10-16T04:28:10;1.88;;;1.33;;
67595;SDS011;54410;48.694;8.934;2022-10-16T04:30:39;1.88;;;1.73;;
67595;SDS011;54410;48.694;8.934;2022-10-16T04:33:05;2.33;;;1.40;;
67595;SDS011;54410;48.694;8.934;2022-10-16T04:35:33;1.40;;;1.30;;
67595;SDS011;54410;48.694;8.934;2022-10-16T04:37:59;3.65;;;1.80;;
67595;SDS011;54410;48.694;8.934;2022-10-16T04:40:24;1.83;;;1.67;;
67595;SDS011;54410;48.694;8.934;2022-10-16T04:42:50;1.92;;;1.60;;
67595;SDS011;54410;48.694;8.934;2022-10-16T04:45:17;3.08;;;1.63;;
67595;SDS011;54410;48.694;8.934;2022-10-16T04:47:42;3.03;;;1.67;;
67595;SDS011;54410;48.694;8.934;2022-10-16T04:50:08;1.83;;;1.58;;
67595;SDS011;54410;48.694;8.934;2022-10-16T04:52:34;1.80;;;1.65;;
67595;SDS011;54410;48.694;8.934;2022-10-16T04:55:00;3.45;;;1.27;;
67595;SDS011;54410;48.694;8.934;2022-10-16T04:57:28;2.17;;;1.63;;
67595;SDS011;54410;48.694;8.934;2022-10-16T04:59:54;1.80;;;1.40;;
67595;SDS011;54410;48.694;8.934;2022-10-16T05:02:20;1.52;;;1.40;;
67595;SDS011;54410;48.694;8.934;2022-10-16T05:04:46;2.67;;;1.25;;
67595;SDS011;54410;48.694;8.934;2022-10-16T05:07:12;1.77;;;1.40;;
67595;SDS011;54410;48.694;8.934;2022-10-16T05:09:38;3.90;;;1.38;;
67595;SDS011;54410;48.694;8.934;2022-10-16T05:12:04;1.58;;;1.33;;
67595;SDS011;54410;48.694;8.934;2022-10-16T05:14:30;1.60;;;1.50;;
67595;SDS011;54410;48.694;8.934;2022-10-16T05:16:56;2.60;;;1.15;;
67595;SDS011;54410;48.694;8.934;2022-10-16T05:19:22;2.90;;;1.50;;
67595;SDS011;54410;48.694;8.934;2022-10-16T05:21:48;1.30;;;1.20;;
67595;SDS011;54410;48.694;8.934;2022-10-16T05:24:14;2.45;;;1.20;;
67595;SDS011;54410;48.694;8.934;2022-10-16T05:26:40;3.85;;;1.48;;
67595;SDS011;54410;48.694;8.934;2022-10-16T05:29:06;2.78;;;1.30;;
67595;SDS011;54410;48.694;8.934;2022-10-16T05:31:32;1.50;;;1.17;;
67595;SDS011;54410;48.694;8.934;2022-10-16T05:34:01;2.10;;;1.30;;
67595;SDS011;54410;48.694;8.934;2022-10-16T05:36:27;3.35;;;1.60;;
67595;SDS011;54410;48.694;8.934;2022-10-16T05:38:53;1.30;;;1.20;;
67595;SDS011;54410;48.694;8.934;2022-10-16T05:41:19;2.47;;;1.75;;
67595;SDS011;54410;48.694;8.934;2022-10-16T05:43:47;6.05;;;1.98;;
67595;SDS011;54410;48.694;8.934;2022-10-16T05:46:13;5.82;;;2.15;;
67595;SDS011;54410;48.694;8.934;2022-10-16T05:48:39;1.73;;;1.63;;
67595;SDS011;54410;48.694;8.934;2022-10-16T05:51:06;4.10;;;1.75;;
67595;SDS011;54410;48.694;8.934;2022-10-16T05:53:33;4.53;;;2.10;;
67595;SDS011;54410;48.694;8.934;2022-10-16T05:55:59;3.10;;;2.28;;
67595;SDS011;54410;48.694;8.934;2022-10-16T05:58:28;2.40;;;1.70;;
67595;SDS011;54410;48.694;8.934;2022-10-16T06:00:58;5.18;;;1.60;;
67595;SDS011;54410;48.694;8.934;2022-10-16T06:03:26;1.98;;;1.40;;
67595;SDS011;54410;48.694;8.934;2022-10-16T06:05:52;2.00;;;1.80;;
67595;SDS011;54410;48.694;8.934;2022-10-16T06:08:19;1.80;;;1.65;;
67595;SDS011;54410;48.694;8.934;2022-10-16T06:10:45;1.70;;;1.38;;
67595;SDS011;54410;48.694;8.934;2022-10-16T06:13:12;2.10;;;1.60;;
67595;SDS011;54410;48.694;8.934;2022-10-16T06:15:39;2.72;;;1.23;;
67595;SDS011;54410;48.694;8.934;2022-10-16T06:18:06;2.65;;;1.23;;
67595;SDS011;54410;48.694;8.934;2022-10-16T06:20:32;1.65;;;1.45;;
67595;SDS011;54410;48.694;8.934;2022-10-16T06:22:58;3.72;;;1.10;;
67595;SDS011;54410;48.694;8.934;2022-10-16T06:25:24;1.45;;;1.13;;
67595;SDS011;54410;48.694;8.934;2022-10-16T06:27:50;2.10;;;1.30;;
67595;SDS011;54410;48.694;8.934;2022-10-16T06:30:16;1.80;;;1.58;;
67595;SDS011;54410;48.694;8.934;2022-10-16T06:32:42;4.75;;;2.90;;
67595;SDS011;54410;48.694;8.934;2022-10-16T06:35:08;3.70;;;3.40;;
67595;SDS011;54410;48.694;8.934;2022-10-16T06:37:34;6.28;;;4.72;;
67595;SDS011;54410;48.694;8.934;2022-10-16T06:40:00;6.35;;;4.97;;
67595;SDS011;54410;48.694;8.934;2022-10-16T06:42:29;4.00;;;2.17;;
67595;SDS011;54410;48.694;8.934;2022-10-16T06:44:55;2.17;;;1.38;;
67595;SDS011;54410;48.694;8.934;2022-10-16T06:47:22;2.28;;;1.27;;
67595;SDS011;54410;48.694;8.934;2022-10-16T06:49:48;1.25;;;1.08;;
67595;SDS011;54410;48.694;8.934;2022-10-16T06:52:14;1.48;;;0.90;;
67595;SDS011;54410;48.694;8.934;2022-10-16T06:54:40;4.97;;;3.42;;
67595;SDS011;54410;48.694;8.934;2022-10-16T06:57:06;4.55;;;2.40;;
67595;SDS011;54410;48.694;8.934;2022-10-16T06:59:32;4.90;;;1.30;;
67595;SDS011;54410;48.694;8.934;2022-10-16T07:01:58;2.35;;;1.35;;
67595;SDS011;54410;48.694;8.934;2022-10-16T07:04:24;2.85;;;1.20;;
67595;SDS011;54410;48.694;8.934;2022-10-16T07:06:50;1.13;;;1.02;;
67595;SDS011;54410;48.694;8.934;2022-10-16T07:09:16;1.20;;;1.10;;
67595;SDS011;54410;48.694;8.934;2022-10-16T07:11:42;2.17;;;1.08;;
67595;SDS011;54410;48.694;8.934;2022-10-16T07:14:18;1.30;;;1.20;;
67595;SDS011;54410;48.694;8.934;2022-10-16T07:16:44;1.67;;;0.90;;
67595;SDS011;54410;48.694;8.934;2022-10-16T07:19:10;1.52;;;0.93;;
67595;SDS011;54410;48.694;8.934;2022-10-16T07:21:39;2.67;;;1.27;;
67595;SDS011;54410;48.694;8.934;2022-10-16T07:24:06;1.13;;;0.98;;
67595;SDS011;54410;48.694;8.934;2022-10-16T07:26:36;1.80;;;1.30;;
67595;SDS011;54410;48.694;8.934;2022-10-16T07:29:04;1.30;;;1.10;;
67595;SDS011;54410;48.694;8.934;2022-10-16T07:31:30;2.10;;;1.10;;
67595;SDS011;54410;48.694;8.934;2022-10-16T07:33:57;4.10;;;1.23;;
67595;SDS011;54410;48.694;8.934;2022-10-16T07:36:23;4.30;;;1.98;;
67595;SDS011;54410;48.694;8.934;2022-10-16T07:38:49;2.65;;;1.60;;
67595;SDS011;54410;48.694;8.934;2022-10-16T07:41:16;1.83;;;1.67;;
67595;SDS011;54410;48.694;8.934;2022-10-16T07:43:47;1.85;;;1.50;;
67595;SDS011;54410;48.694;8.934;2022-10-16T07:46:14;1.75;;;1.40;;
67595;SDS011;54410;48.694;8.934;2022-10-16T07:48:41;7.30;;;4.63;;
67595;SDS011;54410;48.694;8.934;2022-10-16T07:51:10;5.35;;;3.95;;
67595;SDS011;54410;48.694;8.934;2022-10-16T07:53:37;2.25;;;1.52;;
67595;SDS011;54410;48.694;8.934;2022-10-16T07:56:04;3.38;;;1.30;;
67595;SDS011;54410;48.694;8.934;2022-10-16T07:58:31;2.90;;;1.50;;
67595;SDS011;54410;48.694;8.934;2022-10-16T08:00:57;3.63;;;1.50;;
67595;SDS011;54410;48.694;8.934;2022-10-16T08:03:24;1.42;;;1.30;;
67595;SDS011;54410;48.694;8.934;2022-10-16T08:05:50;3.53;;;1.40;;
67595;SDS011;54410;48.694;8.934;2022-10-16T08:08:16;2.70;;;1.40;;
67595;SDS011;54410;48.694;8.934;2022-10-16T08:10:42;2.63;;;1.30;;
67595;SDS011;54410;48.694;8.934;2022-10-16T08:13:08;1.63;;;1.20;;
67595;SDS011;54410;48.694;8.934;2022-10-16T08:15:34;3.85;;;1.20;;
67595;SDS011;54410;48.694;8.934;2022-10-16T08:18:02;1.40;;;1.25;;
67595;SDS011;54410;48.694;8.934;2022-10-16T08:20:28;1.20;;;1.10;;
67595;SDS011;54410;48.694;8.934;2022-10-16T08:22:55;1.20;;;1.10;;
67595;SDS011;54410;48.694;8.934;2022-10-16T08:25:21;2.97;;;1.20;;
67595;SDS011;54410;48.694;8.934;2022-10-16T08:27:48;2.17;;;1.08;;
67595;SDS011;54410;48.694;8.934;2022-10-16T08:30:14;5.10;;;1.42;;
67595;SDS011;54410;48.694;8.934;2022-10-16T08:32:40;2.67;;;1.65;;
67595;SDS011;54410;48.694;8.934;2022-10-16T08:35:07;2.63;;;1.70;;
67595;SDS011;54410;48.694;8.934;2022-10-16T08:37:34;1.00;;;0.90;;
67595;SDS011;54410;48.694;8.934;2022-10-16T08:40:00;1.08;;;0.98;;
67595;SDS011;54410;48.694;8.934;2022-10-16T08:45:19;1.02;;;1.00;;
67595;SDS011;54410;48.694;8.934;2022-10-16T08:50:58;1.38;;;1.23;;
67595;SDS011;54410;48.694;8.934;2022-10-16T08:53:31;2.65;;;1.50;;
67595;SDS011;54410;48.694;8.934;2022-10-16T08:55:59;1.45;;;1.20;;
67595;SDS011;54410;48.694;8.934;2022-10-16T08:58:26;1.20;;;1.00;;
67595;SDS011;54410;48.694;8.934;2022-10-16T09:00:54;1.30;;;1.05;;
67595;SDS011;54410;48.694;8.934;2022-10-16T09:03:37;1.60;;;1.30;;
67595;SDS011;54410;48.694;8.934;2022-10-16T09:11:10;1.60;;;1.05;;
67595;SDS011;54410;48.694;8.934;2022-10-16T09:14:07;1.40;;;0.80;;
67595;SDS011;54410;48.694;8.934;2022-10-16T09:19:50;1.10;;;0.90;;
67595;SDS011;54410;48.694;8.934;2022-10-16T09:22:19;2.35;;;1.13;;
67595;SDS011;54410;48.694;8.934;2022-10-16T09:24:50;2.13;;;1.30;;
67595;SDS011;54410;48.694;8.934;2022-10-16T09:27:16;2.42;;;1.30;;
67595;SDS011;54410;48.694;8.934;2022-10-16T09:29:42;1.35;;;1.00;;
67595;SDS011;54410;48.694;8.934;2022-10-16T09:32:12;2.35;;;1.27;;
67595;SDS011;54410;48.694;8.934;2022-10-16T09:34:42;0.85;;;0.70;;
67595;SDS011;54410;48.694;8.934;2022-10-16T09:37:12;2.63;;;1.10;;
67595;SDS011;54410;48.694;8.934;2022-10-16T09:39:47;1.50;;;0.90;;
67595;SDS011;54410;48.694;8.934;2022-10-16T09:42:23;5.70;;;3.50;;
67595;SDS011;54410;48.694;8.934;2022-10-16T09:44:53;1.83;;;1.27;;
67595;SDS011;54410;48.694;8.934;2022-10-16T09:47:43;1.73;;;1.20;;
67595;SDS011;54410;48.694;8.934;2022-10-16T09:50:27;1.33;;;1.00;;
67595;SDS011;54410;48.694;8.934;2022-10-16T09:53:12;3.00;;;1.05;;
67595;SDS011;54410;48.694;8.934;2022-10-16T09:55:49;1.75;;;1.05;;
67595;SDS011;54410;48.694;8.934;2022-10-16T09:58:16;1.17;;;1.08;;
67595;SDS011;54410;48.694;8.934;2022-10-16T10:00:48;2.00;;;1.48;;
67595;SDS011;54410;48.694;8.934;2022-10-16T10:05:55;1.48;;;0.88;;
67595;SDS011;54410;48.694;8.934;2022-10-16T10:08:21;2.65;;;1.05;;
67595;SDS011;54410;48.694;8.934;2022-10-16T10:10:47;1.55;;;0.75;;
67595;SDS011;54410;48.694;8.934;2022-10-16T10:13:20;4.00;;;1.30;;
67595;SDS011;54410;48.694;8.934;2022-10-16T10:15:49;1.30;;;1.15;;
67595;SDS011;54410;48.694;8.934;2022-10-16T10:18:16;2.50;;;1.17;;
67595;SDS011;54410;48.694;8.934;2022-10-16T10:20:57;2.13;;;1.05;;
67595;SDS011;54410;48.694;8.934;2022-10-16T10:23:24;1.02;;;0.88;;
67595;SDS011;54410;48.694;8.934;2022-10-16T10:29:02;1.50;;;0.73;;
67595;SDS011;54410;48.694;8.934;2022-10-16T10:36:39;0.90;;;0.70;;
67595;SDS011;54410;48.694;8.934;2022-10-16T10:39:08;3.08;;;1.50;;
67595;SDS011;54410;48.694;8.934;2022-10-16T10:44:50;1.02;;;0.82;;
67595;SDS011;54410;48.694;8.934;2022-10-16T10:47:40;3.63;;;1.00;;
67595;SDS011;54410;48.694;8.934;2022-10-16T10:50:26;1.33;;;0.80;;
67595;SDS011;54410;48.694;8.934;2022-10-16T10:53:18;3.80;;;2.88;;
67595;SDS011;54410;48.694;8.934;2022-10-16T10:56:02;1.60;;;1.40;;
67595;SDS011;54410;48.694;8.934;2022-10-16T11:01:14;2.53;;;1.17;;
67595;SDS011;54410;48.694;8.934;2022-10-16T11:06:16;1.40;;;0.80;;
67595;SDS011;54410;48.694;8.934;2022-10-16T11:11:15;2.80;;;0.93;;
67595;SDS011;54410;48.694;8.934;2022-10-16T11:16:21;1.50;;;0.80;;
67595;SDS011;54410;48.694;8.934;2022-10-16T11:18:52;4.18;;;0.85;;
67595;SDS011;54410;48.694;8.934;2022-10-16T11:21:36;1.08;;;0.77;;
67595;SDS011;54410;48.694;8.934;2022-10-16T11:24:15;1.50;;;0.82;;
67595;SDS011;54410;48.694;8.934;2022-10-16T11:26:49;3.67;;;1.25;;
67595;SDS011;54410;48.694;8.934;2022-10-16T11:29:20;2.22;;;1.00;;
67595;SDS011;54410;48.694;8.934;2022-10-16T11:31:57;1.00;;;0.70;;
67595;SDS011;54410;48.694;8.934;2022-10-16T11:34:34;1.25;;;0.90;;
67595;SDS011;54410;48.694;8.934;2022-10-16T11:39:45;2.35;;;1.00;;
67595;SDS011;54410;48.694;8.934;2022-10-16T11:42:22;0.73;;;0.73;;
67595;SDS011;54410;48.694;8.934;2022-10-16T11:47:35;1.13;;;0.63;;
67595;SDS011;54410;48.694;8.934;2022-10-16T11:55:40;0.82;;;0.70;;
67595;SDS011;54410;48.694;8.934;2022-10-16T11:58:19;0.60;;;0.60;;
67595;SDS011;54410;48.694;8.934;2022-10-16T12:06:06;2.33;;;0.80;;
67595;SDS011;54410;48.694;8.934;2022-10-16T12:08:36;1.10;;;1.00;;
67595;SDS011;54410;48.694;8.934;2022-10-16T12:13:49;1.35;;;1.23;;
67595;SDS011;54410;48.694;8.934;2022-10-16T12:18:41;0.98;;;0.70;;
67595;SDS011;54410;48.694;8.934;2022-10-16T12:21:09;2.70;;;0.75;;
67595;SDS011;54410;48.694;8.934;2022-10-16T12:23:54;1.75;;;0.75;;
67595;SDS011;54410;48.694;8.934;2022-10-16T12:26:31;0.77;;;0.77;;
67595;SDS011;54410;48.694;8.934;2022-10-16T12:29:28;3.42;;;1.17;;
67595;SDS011;54410;48.694;8.934;2022-10-16T12:31:55;1.25;;;1.05;;
67595;SDS011;54410;48.694;8.934;2022-10-16T12:34:32;1.10;;;0.90;;
67595;SDS011;54410;48.694;8.934;2022-10-16T12:37:15;2.05;;;0.90;;
67595;SDS011;54410;48.694;8.934;2022-10-16T12:39:54;2.40;;;0.82;;
67595;SDS011;54410;48.694;8.934;2022-10-16T12:44:46;1.40;;;1.08;;
67595;SDS011;54410;48.694;8.934;2022-10-16T12:47:23;1.80;;;1.08;;
67595;SDS011;54410;48.694;8.934;2022-10-16T12:49:54;0.80;;;0.80;;
67595;SDS011;54410;48.694;8.934;2022-10-16T12:55:02;1.33;;;0.90;;
67595;SDS011;54410;48.694;8.934;2022-10-16T13:20:04;2.33;;;1.23;;
67595;SDS011;54410;48.694;8.934;2022-10-16T13:27:48;1.08;;;0.98;;
67595;SDS011;54410;48.694;8.934;2022-10-16T13:30:26;2.67;;;1.00;;
67595;SDS011;54410;48.694;8.934;2022-10-16T13:33:01;1.67;;;1.25;;
67595;SDS011;54410;48.694;8.934;2022-10-16T13:35:29;1.98;;;1.27;;
67595;SDS011;54410;48.694;8.934;2022-10-16T13:38:03;3.78;;;1.08;;
67595;SDS011;54410;48.694;8.934;2022-10-16T13:40:35;1.67;;;0.90;;
67595;SDS011;54410;48.694;8.934;2022-10-16T13:43:00;1.58;;;1.00;;
67595;SDS011;54410;48.694;8.934;2022-10-16T13:45:26;1.30;;;1.20;;
67595;SDS011;54410;48.694;8.934;2022-10-16T13:48:05;1.30;;;1.10;;
67595;SDS011;54410;48.694;8.934;2022-10-16T13:50:35;1.13;;;0.82;;
67595;SDS011;54410;48.694;8.934;2022-10-16T13:53:09;2.15;;;1.17;;
67595;SDS011;54410;48.694;8.934;2022-10-16T13:55:38;1.20;;;1.10;;
67595;SDS011;54410;48.694;8.934;2022-10-16T13:58:05;3.17;;;1.25;;
67595;SDS011;54410;48.694;8.934;2022-10-16T14:00:32;1.08;;;0.93;;
67595;SDS011;54410;48.694;8.934;2022-10-16T14:03:01;1.52;;;1.10;;
67595;SDS011;54410;48.694;8.934;2022-10-16T14:05:32;1.23;;;1.13;;
67595;SDS011;54410;48.694;8.934;2022-10-16T14:07:57;2.65;;;1.25;;
67595;SDS011;54410;48.694;8.934;2022-10-16T14:10:30;1.92;;;1.10;;
67595;SDS011;54410;48.694;8.934;2022-10-16T14:12:57;3.15;;;1.23;;
67595;SDS011;54410;48.694;8.934;2022-10-16T14:15:24;8.60;;;5.03;;
67595;SDS011;54410;48.694;8.934;2022-10-16T14:17:50;4.07;;;3.53;;
67595;SDS011;54410;48.694;8.934;2022-10-16T14:20:17;6.25;;;4.63;;
67595;SDS011;54410;48.694;8.934;2022-10-16T14:22:43;1.98;;;1.70;;
67595;SDS011;54410;48.694;8.934;2022-10-16T14:28:04;3.60;;;1.70;;
67595;SDS011;54410;48.694;8.934;2022-10-16T14:30:48;6.60;;;4.28;;
67595;SDS011;54410;48.694;8.934;2022-10-16T14:38:25;3.33;;;1.80;;
67595;SDS011;54410;48.694;8.934;2022-10-16T14:40:51;2.50;;;1.60;;
67595;SDS011;54410;48.694;8.934;2022-10-16T14:43:21;2.33;;;1.30;;
67595;SDS011;54410;48.694;8.934;2022-10-16T14:45:50;2.05;;;1.58;;
67595;SDS011;54410;48.694;8.934;2022-10-16T14:48:17;2.50;;;1.50;;
67595;SDS011;54410;48.694;8.934;2022-10-16T14:50:44;2.38;;;1.90;;
67595;SDS011;54410;48.694;8.934;2022-10-16T14:53:13;3.90;;;1.15;;
67595;SDS011;54410;48.694;8.934;2022-10-16T14:55:40;1.90;;;1.42;;
67595;SDS011;54410;48.694;8.934;2022-10-16T14:58:09;4.38;;;1.63;;
67595;SDS011;54410;48.694;8.934;2022-10-16T15:00:37;2.42;;;1.50;;
67595;SDS011;54410;48.694;8.934;2022-10-16T15:03:03;3.25;;;1.20;;
67595;SDS011;54410;48.694;8.934;2022-10-16T15:05:29;3.20;;;1.58;;
67595;SDS011;54410;48.694;8.934;2022-10-16T15:07:57;1.70;;;1.23;;
67595;SDS011;54410;48.694;8.934;2022-10-16T15:10:23;3.35;;;1.58;;
67595;SDS011;54410;48.694;8.934;2022-10-16T15:12:51;3.00;;;1.40;;
67595;SDS011;54410;48.694;8.934;2022-10-16T15:17:48;3.20;;;1.60;;
67595;SDS011;54410;48.694;8.934;2022-10-16T15:20:17;1.58;;;1.48;;
67595;SDS011;54410;48.694;8.934;2022-10-16T15:22:43;2.00;;;1.25;;
67595;SDS011;54410;48.694;8.934;2022-10-16T15:25:29;1.63;;;1.40;;
67595;SDS011;54410;48.694;8.934;2022-10-16T15:27:54;2.35;;;1.50;;
67595;SDS011;54410;48.694;8.934;2022-10-16T15:30:20;1.60;;;1.38;;
67595;SDS011;54410;48.694;8.934;2022-10-16T15:32:46;1.50;;;1.40;;
67595;SDS011;54410;48.694;8.934;2022-10-16T15:35:12;4.82;;;1.63;;
67595;SDS011;54410;48.694;8.934;2022-10-16T15:37:38;3.35;;;1.45;;
67595;SDS011;54410;48.694;8.934;2022-10-16T15:40:04;2.50;;;1.55;;
67595;SDS011;54410;48.694;8.934;2022-10-16T15:42:30;1.95;;;1.40;;
67595;SDS011;54410;48.694;8.934;2022-10-16T15:44:56;2.13;;;1.23;;
67595;SDS011;54410;48.694;8.934;2022-10-16T15:47:21;1.75;;;1.60;;
67595;SDS011;54410;48.694;8.934;2022-10-16T15:49:48;2.17;;;1.33;;
67595;SDS011;54410;48.694;8.934;2022-10-16T15:52:13;3.80;;;3.30;;
67595;SDS011;54410;48.694;8.934;2022-10-16T15:54:39;4.78;;;2.10;;
67595;SDS011;54410;48.694;8.934;2022-10-16T15:57:05;2.42;;;1.50;;
67595;SDS011;54410;48.694;8.934;2022-10-16T15:59:31;2.42;;;1.50;;
67595;SDS011;54410;48.694;8.934;2022-10-16T16:01:57;2.28;;;1.40;;
67595;SDS011;54410;48.694;8.934;2022-10-16T16:04:22;2.33;;;1.88;;
67595;SDS011;54410;48.694;8.934;2022-10-16T16:06:48;1.85;;;1.40;;
67595;SDS011;54410;48.694;8.934;2022-10-16T16:09:14;5.82;;;1.70;;
67595;SDS011;54410;48.694;8.934;2022-10-16T16:11:41;2.72;;;1.60;;
67595;SDS011;54410;48.694;8.934;2022-10-16T16:14:07;2.85;;;1.70;;
67595;SDS011;54410;48.694;8.934;2022-10-16T16:16:35;2.10;;;1.85;;
67595;SDS011;54410;48.694;8.934;2022-10-16T16:19:05;7.28;;;5.10;;
67595;SDS011;54410;48.694;8.934;2022-10-16T16:21:32;7.13;;;4.45;;
67595;SDS011;54410;48.694;8.934;2022-10-16T16:23:58;10.77;;;7.57;;
67595;SDS011;54410;48.694;8.934;2022-10-16T16:26:25;7.65;;;4.25;;
67595;SDS011;54410;48.694;8.934;2022-10-16T16:28:52;5.50;;;3.45;;
67595;SDS011;54410;48.694;8.934;2022-10-16T16:31:19;3.55;;;2.55;;
67595;SDS011;54410;48.694;8.934;2022-10-16T16:33:46;5.40;;;2.00;;
67595;SDS011;54410;48.694;8.934;2022-10-16T16:36:12;2.33;;;2.13;;
67595;SDS011;54410;48.694;8.934;2022-10-16T16:38:38;3.13;;;2.40;;
67595;SDS011;54410;48.694;8.934;2022-10-16T16:41:14;2.47;;;1.65;;
67595;SDS011;54410;48.694;8.934;2022-10-16T16:43:40;2.08;;;1.77;;
67595;SDS011;54410;48.694;8.934;2022-10-16T16:46:06;2.53;;;2.03;;
67595;SDS011;54410;48.694;8.934;2022-10-16T16:48:32;2.75;;;2.10;;
67595;SDS011;54410;48.694;8.934;2022-10-16T16:51:02;2.90;;;1.60;;
67595;SDS011;54410;48.694;8.934;2022-10-16T16:53:33;2.25;;;1.95;;